15AL weather

Highfalls Stagefield Army Heliport
Fort Rucker/Hartford, Alabama, United States

Public forecast

Using degrees Fahrenheit for public forecast. Weather courtesy of forecast.io.

METAR (pilot weather report)

Closest report is Cairns AAF (Fort Rucker) Air Field, 11.6 nm (21.5 km) NNE. Retrieved 2017/10/22 08:56 UTC (11 minutes ago):

KOZR 220856Z AUTO 06006KT 10SM CLR 18/16 A3013 RMK AO2 SLP203 T01760161 57011

TAF (pilot weather forecast)

Closest forecast is Cairns AAF (Fort Rucker) Air Field, 11.6 nm (21.5 km) NNE. Retrieved 2017/10/22 08:03 UTC (1 hour ago):

TAF KOZR 220800Z 2208/2314 10006KT 9999 SCT030 QNH3012INS BECMG 2214/2215 12012G20KT 9999 FEW015 BKN025 BKN150 QNH3008INS BECMG 2223/2224 12010KT 9999 BKN015 QNH3001INS BECMG 2306/2307 12009KT 8000 -SHRA BKN015 OVC150 QNH2998INS TEMPO 2307/2309 12010G15KT 4800 -TSRA BKN010CB TX28/2220Z TN18/2211Z